createdAt,value
2022-10-10T00:01:19.161Z,5.40
2022-10-10T00:03:47.011Z,5.40
2022-10-10T00:06:14.863Z,4.95
2022-10-10T00:08:41.928Z,4.43
2022-10-10T00:11:08.858Z,4.38
2022-10-10T00:13:35.722Z,4.93
2022-10-10T00:16:02.923Z,5.10
2022-10-10T00:18:29.963Z,4.43
2022-10-10T00:20:56.850Z,4.75
2022-10-10T00:23:23.398Z,5.50
2022-10-10T00:25:49.957Z,4.80
2022-10-10T00:28:16.802Z,5.20
2022-10-10T00:30:43.986Z,5.10
2022-10-10T00:33:10.490Z,4.78
2022-10-10T00:35:36.924Z,5.53
2022-10-10T00:38:04.107Z,4.80
2022-10-10T00:40:30.930Z,5.10
2022-10-10T00:42:57.848Z,4.97
2022-10-10T00:45:40.803Z,5.43
2022-10-10T00:48:10.328Z,4.85
2022-10-10T00:50:42.955Z,5.22
2022-10-10T00:53:11.607Z,5.32
2022-10-10T00:55:38.619Z,4.63
2022-10-10T00:58:07.871Z,5.03
2022-10-10T01:00:34.416Z,4.80
2022-10-10T01:03:00.926Z,4.15
2022-10-10T01:05:27.465Z,4.18
2022-10-10T01:07:54.725Z,4.30
2022-10-10T01:10:23.006Z,3.80
2022-10-10T01:13:07.675Z,4.25
2022-10-10T01:15:57.390Z,3.78
2022-10-10T01:18:54.946Z,3.90
2022-10-10T01:21:28.069Z,3.70
2022-10-10T01:24:09.786Z,3.40
2022-10-10T01:27:08.246Z,3.20
2022-10-10T01:29:42.533Z,3.20
2022-10-10T01:32:16.390Z,3.03
2022-10-10T01:35:02.662Z,3.00
2022-10-10T01:37:37.197Z,2.83
2022-10-10T01:40:17.904Z,3.05
2022-10-10T01:42:55.870Z,2.83
2022-10-10T01:45:23.966Z,2.53
2022-10-10T01:47:53.668Z,2.63
2022-10-10T01:50:23.288Z,3.00
2022-10-10T01:53:02.321Z,2.75
2022-10-10T01:55:47.604Z,2.80
2022-10-10T01:58:32.169Z,2.95
2022-10-10T02:01:10.562Z,2.25
2022-10-10T02:03:43.083Z,2.20
2022-10-10T02:06:13.213Z,2.50
2022-10-10T02:08:47.942Z,2.42
2022-10-10T02:11:14.648Z,2.58
2022-10-10T02:13:56.727Z,2.25
2022-10-10T02:16:37.406Z,2.78
2022-10-10T02:19:08.484Z,2.42
2022-10-10T02:21:34.916Z,2.50
2022-10-10T02:24:05.777Z,2.45
2022-10-10T02:26:33.434Z,2.08
2022-10-10T02:29:09.283Z,2.67
2022-10-10T02:31:47.971Z,2.50
2022-10-10T02:34:21.918Z,2.38
2022-10-10T02:36:52.625Z,2.65
2022-10-10T02:39:23.845Z,2.72
2022-10-10T02:41:52.404Z,2.47
2022-10-10T02:44:25.934Z,2.42
2022-10-10T02:46:52.645Z,2.45
2022-10-10T02:49:31.032Z,3.22
2022-10-10T02:51:57.691Z,2.58
2022-10-10T02:54:25.641Z,2.47
2022-10-10T02:56:52.587Z,3.05
2022-10-10T02:59:20.095Z,2.72
2022-10-10T03:01:46.705Z,2.80
2022-10-10T03:04:13.742Z,2.97
2022-10-10T03:06:40.150Z,2.80
2022-10-10T03:09:06.598Z,2.80
2022-10-10T03:11:33.114Z,2.50
2022-10-10T03:13:59.510Z,2.70
2022-10-10T03:16:25.928Z,2.78
2022-10-10T03:18:53.181Z,3.00
2022-10-10T03:21:19.602Z,2.78
2022-10-10T03:23:46.005Z,2.53
2022-10-10T03:26:12.424Z,3.20
2022-10-10T03:28:39.009Z,2.60
2022-10-10T03:31:05.662Z,2.75
2022-10-10T03:33:32.033Z,2.88
2022-10-10T03:35:58.437Z,2.78
2022-10-10T03:38:24.817Z,2.45
2022-10-10T03:40:51.215Z,2.80
2022-10-10T03:43:17.617Z,3.10
2022-10-10T03:45:45.831Z,3.67
2022-10-10T03:48:12.230Z,3.00
2022-10-10T03:50:39.045Z,2.90
2022-10-10T03:53:05.669Z,3.28
2022-10-10T03:55:32.113Z,3.10
2022-10-10T03:57:58.535Z,2.80
2022-10-10T04:00:25.226Z,2.50
2022-10-10T04:02:53.570Z,2.85
2022-10-10T04:05:20.166Z,3.00
2022-10-10T04:07:46.561Z,2.78
2022-10-10T04:10:17.174Z,2.58
2022-10-10T04:12:43.611Z,2.65
2022-10-10T04:15:16.001Z,2.78
2022-10-10T04:17:42.401Z,2.78
2022-10-10T04:20:14.944Z,2.70
2022-10-10T04:22:42.635Z,2.20
2022-10-10T04:25:09.368Z,2.65
2022-10-10T04:27:37.079Z,2.85
2022-10-10T04:30:04.804Z,2.38
2022-10-10T04:32:31.370Z,2.25
2022-10-10T04:34:58.891Z,2.55
2022-10-10T04:37:26.379Z,2.97
2022-10-10T04:39:52.797Z,2.25
2022-10-10T04:42:19.410Z,2.75
2022-10-10T04:44:47.927Z,2.60
2022-10-10T04:47:14.409Z,2.45
2022-10-10T04:49:43.794Z,3.00
2022-10-10T04:52:10.801Z,2.50
2022-10-10T04:54:38.203Z,2.30
2022-10-10T04:57:04.987Z,2.63
2022-10-10T04:59:31.478Z,2.83
2022-10-10T05:02:01.562Z,2.50
2022-10-10T05:04:28.605Z,2.70
2022-10-10T05:06:54.992Z,2.22
2022-10-10T05:09:21.464Z,2.10
2022-10-10T05:11:47.871Z,2.10
2022-10-10T05:14:14.261Z,2.35
2022-10-10T05:16:40.858Z,2.00
2022-10-10T05:19:07.250Z,2.40
2022-10-10T05:21:33.663Z,2.30
2022-10-10T05:24:00.122Z,2.00
2022-10-10T05:26:26.888Z,2.30
2022-10-10T05:28:53.301Z,2.67
2022-10-10T05:31:19.703Z,1.92
2022-10-10T05:33:46.137Z,2.30
2022-10-10T05:36:13.929Z,2.05
2022-10-10T05:38:41.195Z,2.55
2022-10-10T05:41:08.713Z,2.75
2022-10-10T05:43:35.579Z,2.50
2022-10-10T05:46:02.709Z,2.42
2022-10-10T05:48:29.265Z,2.50
2022-10-10T05:50:57.362Z,2.17
2022-10-10T05:53:25.541Z,2.40
2022-10-10T05:55:52.006Z,2.72
2022-10-10T05:58:18.591Z,2.65
2022-10-10T06:00:46.906Z,2.67
2022-10-10T06:03:16.655Z,4.00
2022-10-10T06:05:48.936Z,3.15
2022-10-10T06:08:15.345Z,2.85
2022-10-10T06:10:44.325Z,2.78
2022-10-10T06:13:12.904Z,2.90
2022-10-10T06:15:39.473Z,2.63
2022-10-10T06:18:06.436Z,2.90
2022-10-10T06:20:37.382Z,2.85
2022-10-10T06:23:04.926Z,2.72
2022-10-10T06:25:40.382Z,2.60
2022-10-10T06:30:37.102Z,3.17
2022-10-10T06:33:03.529Z,3.08
2022-10-10T06:35:29.930Z,3.20
2022-10-10T06:37:56.328Z,2.95
2022-10-10T06:40:22.719Z,3.40
2022-10-10T06:42:49.523Z,3.63
2022-10-10T06:45:16.356Z,3.08
2022-10-10T06:47:42.771Z,2.80
2022-10-10T06:50:09.421Z,3.00
2022-10-10T06:52:35.932Z,2.67
2022-10-10T06:55:02.440Z,2.78
2022-10-10T06:57:29.142Z,2.88
2022-10-10T06:59:55.527Z,3.05
2022-10-10T07:02:23.199Z,3.13
2022-10-10T07:04:49.665Z,5.93
2022-10-10T07:07:16.573Z,6.55
2022-10-10T07:09:42.958Z,4.97
2022-10-10T07:12:10.121Z,4.38
2022-10-10T07:14:36.522Z,3.08
2022-10-10T07:17:03.230Z,3.40
2022-10-10T07:19:29.622Z,3.20
2022-10-10T07:21:56.025Z,2.65
2022-10-10T07:24:22.590Z,3.40
2022-10-10T07:26:49.887Z,3.22
2022-10-10T07:29:16.267Z,2.60
2022-10-10T07:31:42.694Z,2.50
2022-10-10T07:34:09.155Z,2.72
2022-10-10T07:36:35.542Z,2.53
2022-10-10T07:39:01.957Z,2.50
2022-10-10T07:41:28.380Z,2.25
2022-10-10T07:43:56.500Z,2.70
2022-10-10T07:46:23.482Z,2.47
2022-10-10T07:48:49.952Z,2.45
2022-10-10T07:51:17.344Z,2.33
2022-10-10T07:53:44.320Z,2.60
2022-10-10T07:56:11.207Z,3.58
2022-10-10T07:58:38.086Z,4.10
2022-10-10T08:01:06.828Z,4.22
2022-10-10T08:03:33.286Z,4.20
2022-10-10T08:06:04.207Z,5.45
2022-10-10T08:08:33.958Z,5.00
2022-10-10T08:11:00.955Z,4.53
2022-10-10T08:13:27.850Z,4.30
2022-10-10T08:15:54.390Z,4.40
2022-10-10T08:18:20.840Z,5.40
2022-10-10T08:20:47.608Z,3.88
2022-10-10T08:23:14.129Z,4.15
2022-10-10T08:25:40.541Z,3.80
2022-10-10T08:28:07.009Z,3.28
2022-10-10T08:30:33.431Z,3.60
2022-10-10T08:32:59.859Z,3.42
2022-10-10T08:35:26.261Z,3.45
2022-10-10T08:37:52.859Z,3.40
2022-10-10T08:40:21.529Z,3.22
2022-10-10T08:42:53.319Z,3.05
2022-10-10T08:45:23.685Z,3.00
2022-10-10T08:48:25.835Z,3.13
2022-10-10T08:50:59.460Z,2.95
2022-10-10T08:53:36.791Z,3.00
2022-10-10T08:56:07.243Z,2.90
2022-10-10T08:58:38.862Z,3.03
2022-10-10T09:01:27.945Z,3.35
2022-10-10T09:04:00.556Z,3.05
2022-10-10T09:07:03.549Z,3.00
2022-10-10T09:09:48.597Z,3.45
2022-10-10T09:12:37.570Z,3.20
2022-10-10T09:15:19.570Z,3.20
2022-10-10T09:18:12.376Z,2.80
2022-10-10T09:20:47.767Z,3.15
2022-10-10T09:23:21.978Z,2.97
2022-10-10T09:25:58.981Z,3.33
2022-10-10T09:28:28.103Z,3.47
2022-10-10T09:30:59.645Z,3.15
2022-10-10T09:33:27.457Z,3.78
2022-10-10T09:35:57.978Z,2.53
2022-10-10T09:39:06.852Z,3.05
2022-10-10T09:41:59.453Z,3.00
2022-10-10T09:44:26.467Z,3.00
2022-10-10T09:46:53.523Z,2.97
2022-10-10T09:49:21.491Z,3.85
2022-10-10T09:51:51.787Z,3.28
2022-10-10T09:54:19.908Z,3.10
2022-10-10T09:56:57.975Z,3.38
2022-10-10T09:59:41.775Z,3.15
2022-10-10T10:02:19.014Z,2.90
2022-10-10T10:04:47.115Z,3.30
2022-10-10T10:07:22.346Z,2.92
2022-10-10T10:09:55.003Z,3.00
2022-10-10T10:12:39.154Z,3.00
2022-10-10T10:15:16.912Z,3.17
2022-10-10T10:17:44.065Z,3.17
2022-10-10T10:20:28.665Z,2.78
2022-10-10T10:22:55.404Z,2.58
2022-10-10T10:25:31.719Z,2.50
2022-10-10T10:28:10.744Z,2.38
2022-10-10T10:30:39.064Z,2.45
2022-10-10T10:33:33.645Z,2.63
2022-10-10T10:36:25.355Z,2.58
2022-10-10T10:39:01.045Z,2.08
2022-10-10T10:41:46.501Z,2.45
2022-10-10T10:44:31.112Z,2.85
2022-10-10T10:47:09.987Z,2.35
2022-10-10T10:49:48.594Z,2.72
2022-10-10T10:52:53.357Z,2.28
2022-10-10T10:55:35.831Z,2.42
2022-10-10T11:01:56.091Z,2.38
2022-10-10T11:05:20.077Z,2.50
2022-10-10T11:08:20.371Z,2.45
2022-10-10T11:11:07.978Z,2.63
2022-10-10T11:13:38.991Z,2.97
2022-10-10T11:19:27.777Z,2.80
2022-10-10T11:22:11.514Z,1.45
2022-10-10T11:25:18.575Z,1.10
2022-10-10T11:28:26.391Z,1.37
2022-10-10T11:33:29.277Z,1.92
2022-10-10T11:36:05.277Z,1.20
2022-10-10T11:38:54.439Z,1.25
2022-10-10T11:41:31.231Z,1.48
2022-10-10T11:44:15.058Z,1.40
2022-10-10T11:47:06.878Z,8.80
2022-10-10T11:50:02.405Z,1.40
2022-10-10T11:52:42.054Z,1.30
2022-10-10T11:55:20.511Z,1.13
2022-10-10T11:58:09.639Z,1.35
2022-10-10T12:00:53.708Z,6.65
2022-10-10T12:03:20.273Z,5.53
2022-10-10T12:06:04.534Z,1.92
2022-10-10T12:08:37.357Z,1.25
2022-10-10T12:11:12.077Z,1.73
2022-10-10T12:13:43.604Z,1.25
2022-10-10T12:16:15.723Z,1.15
2022-10-10T12:19:21.836Z,0.85
2022-10-10T12:21:57.765Z,1.40
2022-10-10T12:24:28.337Z,0.90
2022-10-10T12:26:54.766Z,1.10
2022-10-10T12:29:55.521Z,1.33
2022-10-10T12:32:50.333Z,1.30
2022-10-10T12:35:41.566Z,1.25
2022-10-10T12:38:14.390Z,1.58
2022-10-10T12:41:07.472Z,1.35
2022-10-10T12:43:41.494Z,1.13
2022-10-10T12:46:17.457Z,1.20
2022-10-10T12:48:45.260Z,1.23
2022-10-10T12:51:23.042Z,1.13
2022-10-10T12:53:53.350Z,1.15
2022-10-10T12:56:42.348Z,1.20
2022-10-10T12:59:25.102Z,1.10
2022-10-10T13:02:04.062Z,1.33
2022-10-10T13:04:30.994Z,0.93
2022-10-10T13:07:00.190Z,1.10
2022-10-10T13:09:35.060Z,1.10
2022-10-10T13:12:05.018Z,1.00
2022-10-10T13:14:45.032Z,1.20
2022-10-10T13:17:23.731Z,1.30
2022-10-10T13:19:57.738Z,1.00
2022-10-10T13:22:25.440Z,1.65
2022-10-10T13:24:52.385Z,1.10
2022-10-10T13:27:25.081Z,1.42
2022-10-10T13:29:53.364Z,1.13
2022-10-10T13:32:29.139Z,1.60
2022-10-10T13:34:59.257Z,1.02
2022-10-10T13:37:26.268Z,3.33
2022-10-10T13:39:53.880Z,1.70
2022-10-10T13:42:28.721Z,1.40
2022-10-10T13:44:56.092Z,1.30
2022-10-10T13:48:02.260Z,1.40
2022-10-10T13:50:43.882Z,1.17
2022-10-10T13:53:31.904Z,1.27
2022-10-10T13:56:12.292Z,1.85
2022-10-10T13:58:43.625Z,2.00
2022-10-10T14:01:22.239Z,1.88
2022-10-10T14:03:51.681Z,1.65
2022-10-10T14:06:25.494Z,1.38
2022-10-10T14:08:54.373Z,1.88
2022-10-10T14:11:26.696Z,1.95
2022-10-10T14:14:00.854Z,2.25
2022-10-10T14:16:28.323Z,2.25
2022-10-10T14:19:18.055Z,2.20
2022-10-10T14:21:51.370Z,2.92
2022-10-10T14:24:17.751Z,2.42
2022-10-10T14:26:53.726Z,2.00
2022-10-10T14:29:21.259Z,1.75
2022-10-10T14:31:49.704Z,1.67
2022-10-10T14:34:16.137Z,1.67
2022-10-10T14:36:49.144Z,1.98
2022-10-10T14:39:18.392Z,1.70
2022-10-10T14:41:45.263Z,1.88
2022-10-10T14:44:12.642Z,1.98
2022-10-10T14:46:41.689Z,1.50
2022-10-10T14:49:20.065Z,1.70
2022-10-10T14:51:47.904Z,1.90
2022-10-10T14:54:14.823Z,2.00
2022-10-10T14:57:07.744Z,1.60
2022-10-10T14:59:49.375Z,1.75
2022-10-10T15:02:21.070Z,2.20
2022-10-10T15:04:47.569Z,2.50
2022-10-10T15:07:15.221Z,2.05
2022-10-10T15:10:17.614Z,2.17
2022-10-10T15:12:36.570Z,3.40
2022-10-10T15:15:03.916Z,2.78
2022-10-10T15:17:33.576Z,2.50
2022-10-10T15:20:00.891Z,2.40
2022-10-10T15:22:29.424Z,3.30
2022-10-10T15:24:58.313Z,2.58
2022-10-10T15:27:25.091Z,2.42
2022-10-10T15:29:51.527Z,3.25
2022-10-10T15:32:17.996Z,2.60
2022-10-10T15:34:44.391Z,3.25
2022-10-10T15:37:25.238Z,3.00
2022-10-10T15:39:51.723Z,3.42
2022-10-10T15:42:22.763Z,3.30
2022-10-10T15:44:51.526Z,2.50
2022-10-10T15:47:19.383Z,2.50
2022-10-10T15:49:45.954Z,3.72
2022-10-10T15:52:12.728Z,2.78
2022-10-10T15:54:39.191Z,2.63
2022-10-10T15:57:05.603Z,3.38
2022-10-10T15:59:32.595Z,2.35
2022-10-10T16:01:59.155Z,2.10
2022-10-10T16:04:25.770Z,1.60
2022-10-10T16:06:54.502Z,2.00
2022-10-10T16:09:31.213Z,1.77
2022-10-10T16:11:57.622Z,2.92
2022-10-10T16:14:24.060Z,4.45
2022-10-10T16:16:52.801Z,9.00
2022-10-10T16:19:19.249Z,7.00
2022-10-10T16:21:45.695Z,5.35
2022-10-10T16:24:12.147Z,4.95
2022-10-10T16:26:38.846Z,4.80
2022-10-10T16:29:07.046Z,3.67
2022-10-10T16:31:39.047Z,3.00
2022-10-10T16:34:06.884Z,2.50
2022-10-10T16:36:35.433Z,3.10
2022-10-10T16:39:06.022Z,3.45
2022-10-10T16:41:47.697Z,2.83
2022-10-10T16:44:18.186Z,3.15
2022-10-10T16:46:44.755Z,2.75
2022-10-10T16:49:13.249Z,2.90
2022-10-10T16:51:41.793Z,2.60
2022-10-10T16:54:08.756Z,2.30
2022-10-10T16:56:35.545Z,2.55
2022-10-10T16:59:13.302Z,3.00
2022-10-10T17:01:39.849Z,3.42
2022-10-10T17:04:06.402Z,3.60
2022-10-10T17:06:37.747Z,3.55
2022-10-10T17:09:07.257Z,4.32
2022-10-10T17:11:34.599Z,6.88
2022-10-10T17:14:05.078Z,7.00
2022-10-10T17:17:10.034Z,7.45
2022-10-10T17:19:18.213Z,7.15
2022-10-10T17:21:44.706Z,7.13
2022-10-10T17:24:11.087Z,6.88
2022-10-10T17:26:38.547Z,7.22
2022-10-10T17:29:05.050Z,6.45
2022-10-10T17:31:32.670Z,5.88
2022-10-10T17:33:59.693Z,5.82
2022-10-10T17:36:27.924Z,5.15
2022-10-10T17:39:01.426Z,5.85
2022-10-10T17:41:28.965Z,4.93
2022-10-10T17:44:05.182Z,4.28
2022-10-10T17:46:35.157Z,5.05
2022-10-10T17:49:03.758Z,5.45
2022-10-10T17:51:30.228Z,5.75
2022-10-10T17:53:59.517Z,5.10
2022-10-10T17:56:29.067Z,5.78
2022-10-10T17:58:55.657Z,4.85
2022-10-10T18:01:22.416Z,5.05
2022-10-10T18:03:49.104Z,5.78
2022-10-10T18:06:20.397Z,6.25
2022-10-10T18:08:48.204Z,5.80
2022-10-10T18:11:18.121Z,4.40
2022-10-10T18:13:44.762Z,3.83
2022-10-10T18:16:17.066Z,3.47
2022-10-10T18:18:50.353Z,3.60
2022-10-10T18:21:18.461Z,3.47
2022-10-10T18:23:45.023Z,4.00
2022-10-10T18:26:17.278Z,3.70
2022-10-10T18:28:47.686Z,3.47
2022-10-10T18:31:25.308Z,3.80
2022-10-10T18:33:52.038Z,3.55
2022-10-10T18:36:21.228Z,3.03
2022-10-10T18:38:48.742Z,3.40
2022-10-10T18:41:18.438Z,3.63
2022-10-10T18:43:46.905Z,3.58
2022-10-10T18:46:15.886Z,3.75
2022-10-10T18:48:51.577Z,4.25
2022-10-10T18:51:26.747Z,4.10
2022-10-10T18:53:58.517Z,3.97
2022-10-10T18:56:27.011Z,4.40
2022-10-10T18:59:01.021Z,4.20
2022-10-10T19:01:29.354Z,3.50
2022-10-10T19:03:57.907Z,3.75
2022-10-10T19:06:26.589Z,3.55
2022-10-10T19:08:57.879Z,4.03
2022-10-10T19:11:45.004Z,4.07
2022-10-10T19:14:14.519Z,4.18
2022-10-10T19:16:44.607Z,4.15
2022-10-10T19:19:28.542Z,3.70
2022-10-10T19:21:55.971Z,4.32
2022-10-10T19:24:28.754Z,3.67
2022-10-10T19:26:57.332Z,3.70
2022-10-10T19:29:26.375Z,3.28
2022-10-10T19:31:55.917Z,3.60
2022-10-10T19:34:24.004Z,3.25
2022-10-10T19:36:50.508Z,3.60
2022-10-10T19:39:18.148Z,3.78
2022-10-10T19:41:45.604Z,4.40
2022-10-10T19:44:12.116Z,4.60
2022-10-10T19:46:45.523Z,4.55
2022-10-10T19:49:12.273Z,4.82
2022-10-10T19:51:39.065Z,4.47
2022-10-10T19:54:05.579Z,5.03
2022-10-10T19:56:31.962Z,4.80
2022-10-10T19:59:00.597Z,4.50
2022-10-10T20:01:30.078Z,4.80
2022-10-10T20:03:57.805Z,4.95
2022-10-10T20:06:24.277Z,7.32
2022-10-10T20:08:50.690Z,6.40
2022-10-10T20:11:18.671Z,7.10
2022-10-10T20:13:45.063Z,6.32
2022-10-10T20:16:11.634Z,5.40
2022-10-10T20:18:40.949Z,5.53
2022-10-10T20:21:17.126Z,5.05
2022-10-10T20:23:46.954Z,4.70
2022-10-10T20:26:23.613Z,5.70
2022-10-10T20:28:51.174Z,4.80
2022-10-10T20:31:21.395Z,4.70
2022-10-10T20:33:49.524Z,4.30
2022-10-10T20:36:17.205Z,4.88
2022-10-10T20:38:43.946Z,4.38
2022-10-10T20:41:16.600Z,4.00
2022-10-10T20:43:43.081Z,4.05
2022-10-10T20:46:12.891Z,4.43
2022-10-10T20:48:39.616Z,4.03
2022-10-10T20:51:12.203Z,4.20
2022-10-10T20:53:43.652Z,3.90
2022-10-10T20:56:13.142Z,4.35
2022-10-10T20:58:40.440Z,4.47
2022-10-10T21:01:19.431Z,4.18
2022-10-10T21:03:49.939Z,4.03
2022-10-10T21:06:25.239Z,3.92
2022-10-10T21:08:53.352Z,4.10
2022-10-10T21:11:21.675Z,4.20
2022-10-10T21:13:57.464Z,4.25
2022-10-10T21:16:26.200Z,4.40
2022-10-10T21:18:57.936Z,3.83
2022-10-10T21:21:32.111Z,4.80
2022-10-10T21:23:58.823Z,4.40
2022-10-10T21:26:27.608Z,4.35
2022-10-10T21:28:55.380Z,4.60
2022-10-10T21:31:24.840Z,5.65
2022-10-10T21:33:51.321Z,4.82
2022-10-10T21:36:19.697Z,5.00
2022-10-10T21:38:46.257Z,5.05
2022-10-10T21:41:21.113Z,4.93
2022-10-10T21:43:51.386Z,5.47
2022-10-10T21:46:22.136Z,5.38
2022-10-10T21:48:52.337Z,5.20
2022-10-10T21:51:19.745Z,5.13
2022-10-10T21:53:48.308Z,5.07
2022-10-10T21:56:15.056Z,4.65
2022-10-10T21:58:43.161Z,4.78
2022-10-10T22:01:15.578Z,4.30
2022-10-10T22:03:43.165Z,5.32
2022-10-10T22:06:12.712Z,4.63
2022-10-10T22:08:40.402Z,4.50
2022-10-10T22:11:11.219Z,4.18
2022-10-10T22:13:37.856Z,4.65
2022-10-10T22:16:05.341Z,4.97
2022-10-10T22:18:32.456Z,4.68
2022-10-10T22:21:02.479Z,4.30
2022-10-10T22:23:28.871Z,4.72
2022-10-10T22:25:55.255Z,4.88
2022-10-10T22:28:21.745Z,4.95
2022-10-10T22:30:48.236Z,5.05
2022-10-10T22:33:14.982Z,5.13
2022-10-10T22:35:41.610Z,5.50
2022-10-10T22:38:10.055Z,5.30
2022-10-10T22:40:36.606Z,5.00
2022-10-10T22:43:03.294Z,4.85
2022-10-10T22:45:29.769Z,4.55
2022-10-10T22:47:56.158Z,4.32
2022-10-10T22:50:22.847Z,4.47
2022-10-10T22:52:49.279Z,4.00
2022-10-10T22:55:18.447Z,4.10
2022-10-10T22:57:46.083Z,4.60
2022-10-10T23:00:13.523Z,4.30
2022-10-10T23:02:42.908Z,4.60
2022-10-10T23:05:09.622Z,4.85
2022-10-10T23:07:36.046Z,4.32
2022-10-10T23:10:03.057Z,4.28
2022-10-10T23:12:29.479Z,5.00
2022-10-10T23:14:55.941Z,4.50
2022-10-10T23:17:25.560Z,4.75
2022-10-10T23:19:51.980Z,4.55
2022-10-10T23:22:18.400Z,4.30
2022-10-10T23:24:44.799Z,4.70
2022-10-10T23:27:11.174Z,4.82
2022-10-10T23:29:37.637Z,4.25
2022-10-10T23:32:04.235Z,4.53
2022-10-10T23:34:40.839Z,4.88
2022-10-10T23:37:07.223Z,4.32
2022-10-10T23:39:35.076Z,4.20
2022-10-10T23:42:01.480Z,5.05
2022-10-10T23:44:27.898Z,6.15
2022-10-10T23:46:54.290Z,6.13
2022-10-10T23:49:20.677Z,6.47
2022-10-10T23:51:47.057Z,6.00
2022-10-10T23:54:13.447Z,6.25
2022-10-10T23:56:40.917Z,6.60
2022-10-10T23:59:07.351Z,6.35
